createdAt,value
2022-09-12T00:01:47.902Z,2.40
2022-09-12T00:04:14.618Z,2.40
2022-09-12T00:06:42.212Z,2.28
2022-09-12T00:09:10.193Z,2.47
2022-09-12T00:11:38.104Z,2.58
2022-09-12T00:14:05.252Z,2.63
2022-09-12T00:16:33.324Z,2.50
2022-09-12T00:19:00.829Z,2.70
2022-09-12T00:26:19.850Z,2.65
2022-09-12T00:28:48.816Z,2.67
2022-09-12T00:33:45.357Z,2.33
2022-09-12T00:36:14.977Z,2.42
2022-09-12T00:38:42.428Z,2.60
2022-09-12T00:41:23.057Z,2.20
2022-09-12T00:46:34.957Z,2.60
2022-09-12T00:51:32.652Z,2.70
2022-09-12T00:54:00.237Z,2.90
2022-09-12T00:58:57.119Z,2.70
2022-09-12T01:01:24.487Z,2.38
2022-09-12T01:08:52.724Z,2.92
2022-09-12T01:11:19.978Z,2.42
2022-09-12T01:13:46.745Z,2.63
2022-09-12T01:16:13.447Z,2.50
2022-09-12T01:21:46.018Z,3.00
2022-09-12T01:24:37.656Z,2.92
2022-09-12T01:27:04.340Z,2.95
2022-09-12T01:29:49.743Z,2.90
2022-09-12T01:32:16.394Z,2.97
2022-09-12T01:40:35.249Z,2.88
2022-09-12T01:43:04.649Z,3.25
2022-09-12T01:48:16.211Z,3.10
2022-09-12T01:50:54.547Z,3.10
2022-09-12T01:53:23.868Z,3.40
2022-09-12T01:55:52.899Z,3.10
2022-09-12T02:00:49.857Z,2.90
2022-09-12T02:05:51.783Z,3.22
2022-09-12T02:11:07.843Z,3.10
2022-09-12T02:16:37.157Z,3.55
2022-09-12T02:28:59.886Z,3.60
2022-09-12T02:36:50.140Z,3.40
2022-09-12T02:41:47.136Z,3.83
2022-09-12T02:44:13.844Z,4.10
2022-09-12T02:49:09.540Z,3.58
2022-09-12T02:51:36.627Z,3.60
2022-09-12T02:54:03.672Z,3.53
2022-09-12T02:56:31.268Z,3.22
2022-09-12T02:59:03.088Z,3.50
2022-09-12T03:01:30.067Z,3.40
2022-09-12T03:04:15.346Z,3.25
2022-09-12T03:06:50.889Z,3.53
2022-09-12T03:09:23.453Z,3.40
2022-09-12T03:14:42.411Z,3.20
2022-09-12T03:17:29.532Z,3.53
2022-09-12T03:22:53.579Z,3.28
2022-09-12T03:25:20.300Z,3.42
2022-09-12T03:27:57.546Z,3.70
2022-09-12T03:35:20.949Z,4.03
2022-09-12T03:42:41.363Z,3.65
2022-09-12T03:54:50.648Z,3.83
2022-09-12T03:57:17.653Z,3.90
2022-09-12T04:00:19.618Z,3.83
2022-09-12T04:02:46.675Z,3.42
2022-09-12T04:05:13.361Z,3.50
2022-09-12T04:07:39.970Z,4.03
2022-09-12T04:10:06.893Z,3.70
2022-09-12T04:12:35.589Z,3.78
2022-09-12T04:17:27.871Z,3.90
2022-09-12T04:19:54.575Z,4.05
2022-09-12T04:22:21.298Z,4.22
2022-09-12T04:24:48.019Z,3.90
2022-09-12T04:27:14.637Z,4.43
2022-09-12T04:29:41.321Z,3.60
2022-09-12T04:32:07.940Z,3.70
2022-09-12T04:34:34.641Z,3.75
2022-09-12T04:39:26.911Z,4.10
2022-09-12T04:41:53.768Z,3.67
2022-09-12T04:44:22.670Z,3.63
2022-09-12T04:46:50.730Z,3.88
2022-09-12T04:49:19.496Z,4.10
2022-09-12T04:51:47.024Z,3.53
2022-09-12T04:59:08.834Z,3.80
2022-09-12T05:01:35.948Z,3.35
2022-09-12T05:11:59.652Z,4.07
2022-09-12T05:14:26.528Z,4.47
2022-09-12T05:16:53.204Z,3.65
2022-09-12T05:19:20.029Z,4.00
2022-09-12T05:21:46.672Z,3.88
2022-09-12T05:29:04.926Z,4.20
2022-09-12T05:31:31.633Z,4.40
2022-09-12T05:33:58.281Z,4.80
2022-09-12T05:36:26.549Z,4.65
2022-09-12T05:38:54.021Z,4.47
2022-09-12T05:41:24.810Z,4.65
2022-09-12T05:43:55.822Z,5.25
2022-09-12T05:46:23.623Z,5.00
2022-09-12T05:48:55.095Z,4.63
2022-09-12T05:53:54.329Z,5.10
2022-09-12T05:56:23.806Z,4.55
2022-09-12T06:01:21.649Z,5.00
2022-09-12T06:03:49.733Z,4.95
2022-09-12T06:11:12.155Z,4.47
2022-09-12T06:23:28.539Z,2.40
2022-09-12T06:25:55.444Z,2.20
2022-09-12T06:35:55.929Z,2.10
2022-09-12T06:38:22.646Z,2.25
2022-09-12T06:40:49.274Z,2.25
2022-09-12T06:43:15.876Z,2.67
2022-09-12T06:45:48.514Z,2.42
2022-09-12T06:48:15.213Z,2.50
2022-09-12T06:50:42.080Z,2.35
2022-09-12T06:55:34.947Z,2.40
2022-09-12T06:58:01.644Z,2.63
2022-09-12T07:00:28.319Z,2.40
2022-09-12T07:02:56.591Z,2.25
2022-09-12T07:05:23.240Z,2.38
2022-09-12T07:07:49.893Z,2.72
2022-09-12T07:10:21.598Z,2.58
2022-09-12T07:12:48.867Z,2.30
2022-09-12T07:27:24.216Z,1.80
2022-09-12T07:29:50.872Z,1.55
2022-09-12T07:34:43.187Z,1.60
2022-09-12T07:37:10.354Z,1.52
2022-09-12T07:39:37.955Z,1.40
2022-09-12T07:42:04.884Z,1.77
2022-09-12T07:44:34.329Z,1.67
2022-09-12T07:47:01.019Z,1.50
2022-09-12T07:49:27.671Z,1.67
2022-09-12T07:51:54.329Z,1.58
2022-09-12T08:01:43.684Z,1.20
2022-09-12T08:04:10.479Z,1.30
2022-09-12T08:06:44.136Z,2.10
2022-09-12T08:11:38.656Z,1.70
2022-09-12T08:14:05.863Z,1.38
2022-09-12T08:16:33.176Z,1.30
2022-09-12T08:19:00.878Z,1.50
2022-09-12T08:21:29.300Z,1.30
2022-09-12T08:24:13.936Z,1.65
2022-09-12T08:26:40.719Z,1.30
2022-09-12T08:29:07.332Z,1.63
2022-09-12T08:34:02.750Z,1.23
2022-09-12T08:36:30.862Z,1.55
2022-09-12T08:39:01.593Z,1.20
2022-09-12T08:41:31.065Z,1.30
2022-09-12T08:44:15.904Z,1.20
2022-09-12T08:46:57.605Z,1.25
2022-09-12T08:49:29.844Z,1.17
2022-09-12T08:59:23.149Z,0.98
2022-09-12T09:01:53.889Z,1.10
2022-09-12T09:06:59.443Z,1.00
2022-09-12T09:10:34.226Z,1.00
2022-09-12T09:18:04.419Z,1.10
2022-09-12T09:20:36.395Z,1.20
2022-09-12T09:23:11.979Z,1.10
2022-09-12T09:28:40.930Z,0.98
2022-09-12T09:31:36.835Z,0.90
2022-09-12T09:34:10.808Z,1.00
2022-09-12T09:36:51.212Z,1.08
2022-09-12T09:39:17.855Z,1.30
2022-09-12T09:41:47.291Z,1.20
2022-09-12T09:49:07.058Z,1.20
2022-09-12T09:51:37.745Z,0.95
2022-09-12T09:54:10.553Z,1.05
2022-09-12T09:59:12.548Z,0.90
2022-09-12T10:01:50.522Z,1.15
2022-09-12T10:04:21.610Z,1.23
2022-09-12T10:06:50.838Z,1.35
2022-09-12T10:09:19.051Z,2.00
2022-09-12T10:11:46.274Z,1.30
2022-09-12T10:14:31.412Z,0.80
2022-09-12T10:16:58.710Z,1.40
2022-09-12T10:19:36.426Z,0.90
2022-09-12T10:22:04.179Z,1.17
2022-09-12T10:24:34.311Z,1.05
2022-09-12T10:27:15.534Z,0.82
2022-09-12T10:29:54.705Z,0.95
2022-09-12T10:32:30.388Z,0.90
2022-09-12T10:35:00.082Z,1.15
2022-09-12T10:37:31.535Z,0.82
2022-09-12T10:39:59.301Z,1.05
2022-09-12T10:45:26.467Z,0.95
2022-09-12T10:47:54.206Z,0.80
2022-09-12T10:50:22.801Z,0.90
2022-09-12T10:52:49.875Z,0.77
2022-09-12T10:55:16.633Z,0.82
2022-09-12T11:00:20.418Z,0.80
2022-09-12T11:05:32.256Z,0.75
2022-09-12T11:08:03.688Z,0.98
2022-09-12T11:10:39.568Z,1.00
2022-09-12T11:13:14.493Z,0.70
2022-09-12T11:15:59.538Z,0.77
2022-09-12T11:18:29.462Z,0.60
2022-09-12T11:21:09.777Z,0.60
2022-09-12T11:24:01.655Z,0.70
2022-09-12T11:29:21.657Z,0.52
2022-09-12T11:37:11.410Z,0.80
2022-09-12T11:39:40.538Z,0.70
2022-09-12T11:42:12.614Z,0.55
2022-09-12T11:44:42.063Z,0.65
2022-09-12T11:47:11.636Z,0.80
2022-09-12T11:49:40.084Z,0.50
2022-09-12T11:52:11.484Z,0.70
2022-09-12T11:54:41.819Z,0.60
2022-09-12T11:57:11.592Z,0.70
2022-09-12T12:09:33.258Z,0.60
2022-09-12T12:12:02.406Z,0.55
2022-09-12T12:14:49.231Z,0.52
2022-09-12T12:17:25.076Z,0.52
2022-09-12T12:20:04.749Z,0.60
2022-09-12T12:25:17.223Z,0.50
2022-09-12T12:27:51.423Z,0.60
2022-09-12T12:30:30.372Z,0.50
2022-09-12T12:33:00.304Z,0.55
2022-09-12T12:35:36.845Z,0.57
2022-09-12T12:40:30.841Z,0.50
2022-09-12T12:42:58.901Z,0.70
2022-09-12T12:47:55.395Z,0.65
2022-09-12T12:50:26.271Z,0.73
2022-09-12T12:52:52.833Z,0.57
2022-09-12T12:57:52.051Z,0.47
2022-09-12T13:00:24.739Z,0.60
2022-09-12T13:02:56.028Z,0.50
2022-09-12T13:05:24.679Z,0.40
2022-09-12T13:13:00.565Z,0.52
2022-09-12T13:15:36.636Z,0.60
2022-09-12T13:20:31.760Z,0.60
2022-09-12T13:30:55.146Z,0.50
2022-09-12T13:35:59.600Z,0.63
2022-09-12T13:38:44.884Z,0.50
2022-09-12T13:41:30.294Z,0.65
2022-09-12T13:43:57.242Z,0.55
2022-09-12T13:46:30.379Z,0.63
2022-09-12T13:48:58.736Z,0.65
2022-09-12T13:51:27.391Z,0.80
2022-09-12T13:53:56.336Z,0.68
2022-09-12T13:56:23.106Z,0.80
2022-09-12T13:58:54.869Z,0.75
2022-09-12T14:14:31.424Z,0.95
2022-09-12T14:17:01.222Z,0.80
2022-09-12T14:19:29.323Z,0.63
2022-09-12T14:24:24.389Z,0.80
2022-09-12T14:26:52.971Z,0.68
2022-09-12T14:29:20.128Z,0.70
2022-09-12T14:31:46.901Z,0.80
2022-09-12T14:34:15.227Z,0.70
2022-09-12T14:46:37.690Z,0.63
2022-09-12T14:49:10.582Z,1.00
2022-09-12T14:51:42.113Z,0.70
2022-09-12T14:57:04.766Z,0.70
2022-09-12T14:59:34.449Z,0.98
2022-09-12T15:04:52.556Z,0.77
2022-09-12T15:12:20.800Z,0.60
2022-09-12T15:14:47.392Z,0.77
2022-09-12T15:19:39.416Z,0.70
2022-09-12T15:22:06.097Z,0.73
2022-09-12T15:24:32.753Z,0.85
2022-09-12T15:29:25.003Z,0.82
2022-09-12T15:31:51.833Z,0.80
2022-09-12T15:34:19.533Z,0.80
2022-09-12T15:44:05.204Z,0.73
2022-09-12T15:46:31.956Z,0.70
2022-09-12T15:48:58.673Z,0.70
2022-09-12T15:53:51.305Z,0.50
2022-09-12T15:56:18.632Z,0.60
2022-09-12T15:58:57.855Z,0.73
2022-09-12T16:03:51.583Z,0.60
2022-09-12T16:06:18.235Z,0.55
2022-09-12T16:08:44.896Z,0.63
2022-09-12T16:16:10.026Z,0.70
2022-09-12T16:18:38.988Z,0.80
2022-09-12T16:21:05.712Z,0.70
2022-09-12T16:23:32.327Z,0.70
2022-09-12T16:28:25.078Z,0.47
2022-09-12T16:33:24.317Z,0.77
2022-09-12T16:35:51.450Z,0.93
2022-09-12T16:38:20.868Z,0.80
2022-09-12T16:50:37.086Z,1.00
2022-09-12T17:07:47.084Z,1.08
2022-09-12T17:10:24.043Z,0.90
2022-09-12T17:25:12.004Z,0.98
2022-09-12T17:27:41.982Z,1.02
2022-09-12T17:30:11.976Z,1.30
2022-09-12T17:32:42.822Z,1.00
2022-09-12T17:44:55.912Z,1.30
2022-09-12T17:47:23.396Z,1.23
2022-09-12T17:50:09.218Z,0.98
2022-09-12T17:55:09.865Z,1.30
2022-09-12T17:57:37.313Z,2.00
2022-09-12T18:00:10.381Z,1.50
2022-09-12T18:05:11.732Z,1.52
2022-09-12T18:10:21.571Z,1.67
2022-09-12T18:15:15.818Z,1.77
2022-09-12T18:17:42.531Z,1.77
2022-09-12T18:22:34.959Z,1.20
2022-09-12T18:25:01.690Z,1.25
2022-09-12T18:27:28.357Z,1.20
2022-09-12T18:30:17.283Z,1.27
2022-09-12T18:52:08.097Z,1.70
2022-09-12T18:54:35.656Z,1.90
2022-09-12T18:57:02.914Z,1.55
2022-09-12T19:01:58.576Z,1.60
2022-09-12T19:04:27.068Z,1.50
2022-09-12T19:06:56.378Z,1.70
2022-09-12T19:09:24.371Z,1.50
2022-09-12T19:11:52.673Z,1.40
2022-09-12T19:19:16.706Z,1.20
2022-09-12T19:21:44.682Z,1.33
2022-09-12T19:24:11.609Z,1.77
2022-09-12T19:26:39.132Z,1.42
2022-09-12T19:29:07.793Z,1.75
2022-09-12T19:31:34.513Z,1.70
2022-09-12T19:34:01.968Z,2.58
2022-09-12T19:36:44.466Z,2.40
2022-09-12T19:39:12.343Z,1.95
2022-09-12T19:41:39.041Z,1.85
2022-09-12T19:44:05.763Z,1.35
2022-09-12T19:46:32.751Z,1.67
2022-09-12T19:48:59.501Z,1.40
2022-09-12T19:51:26.525Z,1.60
2022-09-12T19:53:53.833Z,1.63
2022-09-12T19:56:20.681Z,1.30
2022-09-12T19:58:52.099Z,1.30
2022-09-12T20:06:18.485Z,1.55
2022-09-12T20:11:12.730Z,1.33
2022-09-12T20:13:40.173Z,1.40
2022-09-12T20:16:11.716Z,0.95
2022-09-12T20:18:38.748Z,1.40
2022-09-12T20:21:12.478Z,1.30
2022-09-12T20:23:40.819Z,1.40
2022-09-12T20:26:08.756Z,1.30
2022-09-12T20:43:23.796Z,1.10
2022-09-12T20:45:50.464Z,1.30
2022-09-12T20:48:17.150Z,1.27
2022-09-12T20:50:43.799Z,1.30
2022-09-12T20:53:10.484Z,1.23
2022-09-12T20:55:37.080Z,1.17
2022-09-12T21:05:22.295Z,1.20
2022-09-12T21:07:48.980Z,1.33
2022-09-12T21:10:15.645Z,1.20
2022-09-12T21:17:33.578Z,1.67
2022-09-12T21:20:00.289Z,1.30
2022-09-12T21:22:26.957Z,1.27
2022-09-12T21:24:53.652Z,1.30
2022-09-12T21:27:20.316Z,1.42
2022-09-12T21:29:46.920Z,1.30
2022-09-12T21:32:14.326Z,1.20
2022-09-12T21:34:41.867Z,1.17
2022-09-12T21:37:08.468Z,1.23
2022-09-12T21:39:35.138Z,1.30
2022-09-12T21:42:01.707Z,1.77
2022-09-12T21:46:53.860Z,1.17
2022-09-12T21:49:20.606Z,1.17
2022-09-12T21:51:47.279Z,1.40
2022-09-12T21:54:14.112Z,1.45
2022-09-12T21:56:40.773Z,1.42
2022-09-12T21:59:07.366Z,1.25
2022-09-12T22:01:34.085Z,1.50
2022-09-12T22:04:00.859Z,1.50
2022-09-12T22:06:27.494Z,1.27
2022-09-12T22:13:45.948Z,1.20
2022-09-12T22:16:12.796Z,1.30
2022-09-12T22:18:39.494Z,1.33
2022-09-12T22:21:07.975Z,1.60
2022-09-12T22:26:18.934Z,0.93
2022-09-12T22:28:47.237Z,1.40
2022-09-12T22:31:14.145Z,1.33
2022-09-12T22:33:40.786Z,1.40
2022-09-12T22:36:08.026Z,1.48
2022-09-12T22:38:34.579Z,1.10
2022-09-12T22:43:31.573Z,1.08
2022-09-12T22:45:58.715Z,1.17
2022-09-12T22:48:25.445Z,1.20
2022-09-12T22:50:52.145Z,1.25
2022-09-12T22:53:18.822Z,1.08
2022-09-12T23:00:36.565Z,1.05
2022-09-12T23:03:03.299Z,1.00
2022-09-12T23:05:29.929Z,0.95
2022-09-12T23:07:56.477Z,1.10
2022-09-12T23:12:48.610Z,1.08
2022-09-12T23:15:15.380Z,0.90
2022-09-12T23:17:42.023Z,1.20
2022-09-12T23:20:08.898Z,1.30
2022-09-12T23:22:36.106Z,0.95
2022-09-12T23:25:03.423Z,1.05
2022-09-12T23:27:30.071Z,0.90
2022-09-12T23:29:56.663Z,1.10
2022-09-12T23:32:24.784Z,1.42
2022-09-12T23:34:51.922Z,1.00
2022-09-12T23:37:18.474Z,1.05
2022-09-12T23:44:36.291Z,1.27
2022-09-12T23:47:03.299Z,1.10
2022-09-12T23:49:30.253Z,1.10
2022-09-12T23:51:56.881Z,1.23
2022-09-12T23:54:25.119Z,1.13
2022-09-12T23:56:51.919Z,1.10
2022-09-12T23:59:18.495Z,1.25
